Time;durP1;ratioP1;P1;durP2;ratioP2;P2;SDS_P1;SDS_P2;PMS_P1;PMS_P2;Temp;Humidity;BMP_temperature;BMP_pressure;BME280_temperature;BME280_humidity;BME280_pressure;Samples;Min_cycle;Max_cycle;Signal;HPM_P1;HPM_P2
2022/01/25 00:25:57;;;;;;;76.85;38.55;;;3.70;99.90;;;;;;5011330;28;20052;-49
2022/01/25 00:31:16;;;;;;;70.30;37.78;;;3.80;99.90;;;;;;5011586;28;20053;-55
2022/01/25 00:33:52;;;;;;;70.68;36.72;;;3.80;99.90;;;;;;5011847;28;20570;-52
2022/01/25 00:36:23;;;;;;;75.13;38.63;;;3.80;99.90;;;;;;5011848;28;20050;-51
2022/01/25 00:38:49;;;;;;;70.65;38.00;;;3.80;99.90;;;;;;5011611;28;20370;-50
2022/01/25 00:41:17;;;;;;;75.00;38.67;;;3.80;99.90;;;;;;5011372;28;20046;-53
2022/01/25 00:43:44;;;;;;;73.45;37.85;;;3.80;99.90;;;;;;5011603;28;20045;-48
2022/01/25 00:46:11;;;;;;;78.30;39.50;;;3.80;99.90;;;;;;5011332;28;20033;-53
2022/01/25 00:54:00;;;;;;;70.63;36.60;;;3.80;99.90;;;;;;5011237;28;20522;-51
2022/01/25 00:56:39;;;;;;;74.13;39.58;;;3.80;99.90;;;;;;5011410;28;20551;-53
2022/01/25 00:59:10;;;;;;;72.63;38.55;;;3.70;99.90;;;;;;5010297;28;20049;-50
2022/01/25 01:01:37;;;;;;;70.50;37.92;;;3.80;99.90;;;;;;5009990;28;20191;-53
2022/01/25 01:04:04;;;;;;;74.22;38.10;;;3.70;99.90;;;;;;5010951;28;20050;-50
2022/01/25 01:06:30;;;;;;;71.82;37.13;;;3.80;99.90;;;;;;5011287;28;20049;-52
2022/01/25 01:08:56;;;;;;;70.05;37.67;;;3.70;99.90;;;;;;5011164;28;20026;-55
2022/01/25 01:11:30;;;;;;;75.80;39.20;;;3.70;99.90;;;;;;5011206;28;20030;-50
2022/01/25 01:40:51;;;;;;;75.15;39.05;;;3.60;99.90;;;;;;5032506;28;20476;-48
2022/01/25 01:43:28;;;;;;;72.80;38.05;;;3.70;99.90;;;;;;5031821;28;20041;-49
2022/01/25 01:49:20;;;;;;;68.68;38.15;;;3.70;99.90;;;;;;5009801;28;20057;-48
2022/01/25 01:51:21;;;;;;;71.63;37.03;;;3.70;99.90;;;;;;5014503;28;20037;-51
2022/01/25 01:53:47;;;;;;;75.40;39.45;;;3.70;99.90;;;;;;5013198;28;20571;-53
2022/01/25 01:56:13;;;;;;;73.80;38.17;;;3.70;99.90;;;;;;5022597;28;20121;-51
2022/01/25 01:58:40;;;;;;;75.57;39.60;;;3.70;99.90;;;;;;5029710;28;20030;-49
2022/01/25 02:01:11;;;;;;;71.65;38.72;;;3.70;99.90;;;;;;5019673;28;20042;-48
2022/01/25 02:03:36;;;;;;;72.45;38.75;;;3.70;99.90;;;;;;4996318;28;20121;-51
2022/01/25 02:06:02;;;;;;;80.72;42.00;;;3.60;99.90;;;;;;5032450;28;20445;-51
2022/01/25 02:08:28;;;;;;;75.45;39.83;;;3.70;99.90;;;;;;5018914;28;20045;-51
2022/01/25 02:10:54;;;;;;;74.50;40.25;;;3.70;99.90;;;;;;5019251;28;20482;-51
2022/01/25 02:13:20;;;;;;;75.80;40.38;;;3.70;99.90;;;;;;5018505;28;20044;-51
2022/01/25 02:15:48;;;;;;;76.07;38.60;;;3.60;99.90;;;;;;5025299;28;20044;-49
2022/01/25 02:23:27;;;;;;;75.57;40.22;;;3.70;99.90;;;;;;5019747;28;20056;-53
2022/01/25 02:25:57;;;;;;;75.03;39.67;;;3.60;99.90;;;;;;5013913;28;20045;-52
2022/01/25 02:28:24;;;;;;;78.60;40.78;;;3.60;99.90;;;;;;4995794;28;20076;-52
2022/01/25 02:30:50;;;;;;;76.68;39.75;;;3.90;99.90;;;;;;5013708;28;20042;-51
2022/01/25 02:33:16;;;;;;;75.93;39.63;;;3.60;99.90;;;;;;5013733;28;20063;-50
2022/01/25 02:35:42;;;;;;;74.10;38.92;;;3.60;99.90;;;;;;5013791;28;20115;-52
2022/01/25 02:38:08;;;;;;;73.30;39.00;;;3.60;99.90;;;;;;5012989;28;20077;-55
2022/01/25 02:40:34;;;;;;;72.90;39.05;;;3.60;99.90;;;;;;5013817;28;20131;-54
2022/01/25 02:43:00;;;;;;;70.50;38.92;;;3.60;99.90;;;;;;5013995;28;20038;-52
2022/01/25 02:45:33;;;;;;;77.28;39.50;;;3.60;99.90;;;;;;5013636;28;20038;-51
2022/01/25 02:50:44;;;;;;;84.78;41.30;;;3.60;99.90;;;;;;5013031;28;20096;-49
2022/01/25 02:53:10;;;;;;;73.47;39.92;;;3.60;99.90;;;;;;5013397;28;20041;-53
2022/01/25 02:55:39;;;;;;;72.95;39.17;;;3.60;99.90;;;;;;5013476;28;20052;-51
2022/01/25 02:58:05;;;;;;;82.72;40.20;;;3.60;99.90;;;;;;5013302;28;20428;-51
2022/01/25 03:00:31;;;;;;;73.32;39.63;;;3.60;99.90;;;;;;5013046;28;20073;-50
2022/01/25 03:02:57;;;;;;;77.10;40.42;;;3.60;99.90;;;;;;5013139;28;20073;-50
2022/01/25 03:05:23;;;;;;;76.78;39.78;;;3.60;99.90;;;;;;5013267;28;20046;-53
2022/01/25 03:07:49;;;;;;;77.10;39.22;;;3.60;99.90;;;;;;5013263;28;20034;-51
2022/01/25 03:10:14;;;;;;;76.22;39.80;;;3.60;99.90;;;;;;4995671;28;20037;-54
2022/01/25 03:12:54;;;;;;;78.05;39.20;;;3.50;99.90;;;;;;5013117;28;20046;-52
2022/01/25 03:18:14;;;;;;;70.40;37.05;;;3.60;99.90;;;;;;5013160;28;20651;-53
2022/01/25 03:20:59;;;;;;;72.35;37.38;;;3.50;99.90;;;;;;5012387;28;20077;-53
2022/01/25 03:23:24;;;;;;;75.43;38.40;;;3.50;99.90;;;;;;5016984;28;20054;-52
2022/01/25 03:25:50;;;;;;;76.85;38.95;;;3.50;99.90;;;;;;5032888;28;20047;-49
2022/01/25 03:28:18;;;;;;;76.88;38.38;;;3.50;99.90;;;;;;5022639;28;20447;-53
2022/01/25 03:30:44;;;;;;;76.72;39.28;;;3.50;99.90;;;;;;5005335;28;20037;-52
2022/01/25 03:33:11;;;;;;;75.05;39.72;;;3.60;99.90;;;;;;5014703;28;20064;-53
2022/01/25 03:35:37;;;;;;;81.35;39.28;;;3.50;99.90;;;;;;5024065;28;20044;-51
2022/01/25 03:38:03;;;;;;;82.78;41.25;;;3.50;99.90;;;;;;5021600;28;20037;-52
2022/01/25 03:40:29;;;;;;;80.30;40.40;;;3.50;99.90;;;;;;5017042;28;20034;-51
2022/01/25 03:42:55;;;;;;;80.63;39.63;;;3.50;99.90;;;;;;5012446;28;20038;-50
2022/01/25 03:45:29;;;;;;;77.63;39.83;;;3.40;99.90;;;;;;5025070;28;20101;-53
2022/01/25 03:49:49;;;;;;;79.47;38.38;;;3.50;99.90;;;;;;5026411;28;20037;-53
2022/01/25 03:50:49;;;;;;;77.35;39.72;;;3.50;99.90;;;;;;5028931;28;20121;-54
2022/01/25 03:53:17;;;;;;;77.50;38.70;;;3.50;99.90;;;;;;5020316;28;20528;-50
2022/01/25 03:55:44;;;;;;;73.60;39.55;;;3.50;99.90;;;;;;5012654;28;20038;-53
2022/01/25 03:58:09;;;;;;;79.03;39.90;;;3.40;99.90;;;;;;5024823;28;20057;-52
2022/01/25 04:00:37;;;;;;;77.03;38.53;;;3.40;99.90;;;;;;5025155;28;20485;-52
2022/01/25 04:03:09;;;;;;;78.53;39.08;;;3.40;99.90;;;;;;5025545;28;20128;-50
2022/01/25 04:05:53;;;;;;;75.95;38.67;;;3.40;99.90;;;;;;5019944;28;20044;-50
2022/01/25 04:08:20;;;;;;;77.93;39.17;;;3.40;99.90;;;;;;5018089;28;20073;-54
2022/01/25 04:10:46;;;;;;;80.65;39.10;;;3.40;99.90;;;;;;5021991;28;20554;-54
2022/01/25 04:13:12;;;;;;;77.88;39.50;;;3.40;99.90;;;;;;5020020;28;20037;-52
2022/01/25 04:15:41;;;;;;;76.97;38.20;;;3.40;99.90;;;;;;5013399;28;20029;-51
2022/01/25 04:21:05;;;;;;;;;;;3.40;99.90;;;;;;5023988;28;20068;-50
2022/01/25 04:26:15;;;;;;;82.40;41.63;;;3.40;99.90;;;;;;5012100;28;20084;-51
2022/01/25 04:28:40;;;;;;;79.93;41.35;;;3.40;99.90;;;;;;5010191;28;20128;-51
2022/01/25 04:31:06;;;;;;;81.97;41.28;;;3.40;99.90;;;;;;4993637;28;20499;-52
2022/01/25 04:33:41;;;;;;;82.97;41.33;;;3.40;99.90;;;;;;4994117;28;20049;-52
2022/01/25 04:49:32;;;;;;;86.30;42.75;;;3.50;99.90;;;;;;5011774;28;20048;-50
2022/01/25 04:52:11;;;;;;;80.47;40.70;;;3.40;99.90;;;;;;5011618;28;20042;-50
2022/01/25 04:55:20;;;;;;;83.45;41.78;;;3.40;99.90;;;;;;5011413;28;20044;-49
2022/01/25 04:57:45;;;;;;;83.20;41.67;;;3.40;99.90;;;;;;5008137;28;20077;-55
2022/01/25 05:00:18;;;;;;;80.78;41.15;;;3.30;99.90;;;;;;4993594;28;20044;-54
2022/01/25 05:02:58;;;;;;;78.63;40.33;;;3.30;99.90;;;;;;5010622;28;20065;-49
2022/01/25 05:08:00;;;;;;;83.03;41.13;;;3.30;99.90;;;;;;5011456;28;20077;-55
2022/01/25 05:10:28;;;;;;;79.32;39.35;;;3.30;99.90;;;;;;4993413;28;20049;-51
2022/01/25 05:13:11;;;;;;;80.38;40.85;;;3.30;99.90;;;;;;5013232;28;20041;-50
2022/01/25 05:18:18;;;;;;;86.88;42.63;;;3.30;99.90;;;;;;5015386;28;20042;-50
2022/01/25 05:23:28;;;;;;;87.28;42.35;;;3.30;99.90;;;;;;5020060;28;20054;-47
2022/01/25 05:25:54;;;;;;;83.03;41.22;;;3.40;99.90;;;;;;5028876;28;20384;-51
2022/01/25 05:28:20;;;;;;;81.88;40.40;;;3.20;99.90;;;;;;5026729;28;20037;-52
2022/01/25 05:30:46;;;;;;;80.57;41.58;;;3.20;99.90;;;;;;5034241;28;20084;-52
2022/01/25 05:33:12;;;;;;;83.68;42.97;;;3.20;99.90;;;;;;5025261;28;20041;-52
2022/01/25 05:35:37;;;;;;;85.18;41.75;;;3.20;99.90;;;;;;5023423;28;20084;-50
2022/01/25 05:38:04;;;;;;;89.22;42.90;;;3.20;99.90;;;;;;5015583;28;20041;-52
2022/01/25 05:40:57;;;;;;;82.97;40.78;;;3.20;99.90;;;;;;5027632;28;20046;-49
2022/01/25 05:46:16;;;;;;;79.43;40.10;;;3.20;99.90;;;;;;5026107;28;20044;-54
2022/01/25 05:48:43;;;;;;;80.70;40.17;;;3.20;99.90;;;;;;5029281;28;20048;-49
2022/01/25 05:51:10;;;;;;;87.97;42.22;;;3.20;99.90;;;;;;5020229;28;20042;-52
2022/01/25 05:53:36;;;;;;;87.60;40.63;;;3.20;99.90;;;;;;5034570;28;20532;-50
2022/01/25 05:56:02;;;;;;;90.05;42.17;;;3.20;99.90;;;;;;5030630;28;20507;-50
2022/01/25 05:58:28;;;;;;;85.03;42.33;;;3.20;99.90;;;;;;5020944;28;20468;-50
2022/01/25 06:00:53;;;;;;;87.93;42.05;;;3.20;99.90;;;;;;5002789;28;20068;-52
2022/01/25 06:03:19;;;;;;;85.57;41.95;;;3.20;99.90;;;;;;5025675;28;20041;-51
2022/01/25 06:05:45;;;;;;;88.18;43.53;;;3.20;99.90;;;;;;5017641;28;20038;-53
2022/01/25 06:08:11;;;;;;;87.28;41.20;;;3.20;99.90;;;;;;5034208;28;20545;-50
2022/01/25 06:10:37;;;;;;;85.28;42.10;;;3.20;99.90;;;;;;5022983;28;20092;-52
2022/01/25 06:13:03;;;;;;;89.63;42.78;;;3.20;99.90;;;;;;5030100;28;20128;-53
2022/01/25 06:15:29;;;;;;;81.88;40.38;;;3.20;99.90;;;;;;5004446;28;20041;-52
2022/01/25 06:17:55;;;;;;;86.18;42.97;;;3.20;99.90;;;;;;5023632;28;20044;-52
2022/01/25 06:20:21;;;;;;;84.20;41.50;;;3.20;99.90;;;;;;5029207;28;20073;-48
2022/01/25 06:22:47;;;;;;;82.70;40.70;;;3.20;99.90;;;;;;5020880;28;20085;-50
2022/01/25 06:25:13;;;;;;;86.22;42.90;;;3.20;99.90;;;;;;5013099;28;20128;-52
2022/01/25 06:27:40;;;;;;;85.03;42.30;;;3.20;99.90;;;;;;5013923;28;20069;-51
2022/01/25 06:30:17;;;;;;;87.07;42.65;;;3.20;99.90;;;;;;5014176;28;20089;-51
2022/01/25 06:32:44;;;;;;;86.07;42.10;;;3.20;99.90;;;;;;5012414;28;20104;-48
2022/01/25 06:35:11;;;;;;;89.65;42.50;;;3.20;99.90;;;;;;5014041;28;20523;-49
2022/01/25 06:37:37;;;;;;;86.65;42.40;;;3.20;99.90;;;;;;5013766;28;20485;-52
2022/01/25 06:40:07;;;;;;;89.75;42.08;;;3.20;99.90;;;;;;5013870;28;20092;-53
2022/01/25 06:42:35;;;;;;;90.63;41.55;;;3.20;99.90;;;;;;5013396;28;20034;-54
2022/01/25 06:45:04;;;;;;;85.15;41.80;;;3.20;99.90;;;;;;5013605;28;20046;-52
2022/01/25 06:47:30;;;;;;;87.55;43.30;;;3.20;99.90;;;;;;4995944;28;20073;-50
2022/01/25 06:49:57;;;;;;;87.82;43.30;;;3.10;99.90;;;;;;5013261;28;20167;-50
2022/01/25 06:52:23;;;;;;;88.30;41.90;;;3.10;99.90;;;;;;5013596;28;20081;-50
2022/01/25 06:54:49;;;;;;;83.07;42.65;;;3.20;99.90;;;;;;5013435;28;20401;-50
2022/01/25 06:57:14;;;;;;;84.35;40.63;;;3.20;99.90;;;;;;5013427;28;20038;-53
2022/01/25 06:59:40;;;;;;;82.57;41.40;;;3.20;99.90;;;;;;5013047;28;20041;-48
2022/01/25 07:02:07;;;;;;;88.15;42.67;;;3.30;99.90;;;;;;5012399;28;20037;-50
2022/01/25 07:04:32;;;;;;;91.70;42.45;;;3.10;99.90;;;;;;5012843;28;20038;-52
2022/01/25 07:06:58;;;;;;;85.90;42.50;;;3.10;99.90;;;;;;5013160;28;20040;-50
2022/01/25 07:09:24;;;;;;;89.70;41.97;;;3.10;99.90;;;;;;5013136;28;20041;-51
2022/01/25 07:11:49;;;;;;;94.03;43.90;;;3.10;99.90;;;;;;4994432;28;20064;-47
2022/01/25 07:14:15;;;;;;;88.38;43.53;;;3.10;99.90;;;;;;4995739;28;20092;-50
2022/01/25 07:16:41;;;;;;;91.47;42.60;;;3.10;99.90;;;;;;5012900;28;20061;-54
2022/01/25 07:19:06;;;;;;;89.90;42.53;;;3.10;99.90;;;;;;5013159;28;20065;-50
2022/01/25 07:21:32;;;;;;;86.43;41.88;;;3.10;99.90;;;;;;5012880;28;20067;-53
2022/01/25 07:23:58;;;;;;;90.82;43.30;;;3.10;99.90;;;;;;5012329;28;20046;-52
2022/01/25 07:26:24;;;;;;;90.13;42.30;;;3.00;99.90;;;;;;5013047;28;20045;-50
2022/01/25 07:28:49;;;;;;;87.47;41.15;;;3.00;99.90;;;;;;5012873;28;20037;-50
2022/01/25 07:31:15;;;;;;;90.65;41.75;;;3.00;99.90;;;;;;5012619;28;20473;-52
2022/01/25 07:33:41;;;;;;;90.28;40.97;;;3.00;99.90;;;;;;5012699;28;20041;-50
2022/01/25 07:36:07;;;;;;;90.65;42.08;;;3.10;99.90;;;;;;5012571;28;20076;-50
2022/01/25 07:38:33;;;;;;;87.95;41.72;;;3.10;99.90;;;;;;5012641;28;20045;-51
2022/01/25 07:40:59;;;;;;;88.63;42.40;;;3.10;99.90;;;;;;5012294;28;20095;-53
2022/01/25 07:43:26;;;;;;;86.95;40.45;;;3.10;99.90;;;;;;4994515;28;20398;-53
2022/01/25 07:45:53;;;;;;;91.40;43.17;;;3.10;99.90;;;;;;5012727;28;20487;-50
2022/01/25 07:48:20;;;;;;;93.63;42.53;;;3.10;99.90;;;;;;5012131;28;20038;-52
2022/01/25 07:50:46;;;;;;;87.00;40.80;;;3.10;99.90;;;;;;5012328;28;20492;-53
2022/01/25 07:53:12;;;;;;;93.60;43.30;;;3.10;99.90;;;;;;4994759;28;20037;-48
2022/01/25 07:55:38;;;;;;;90.50;41.00;;;3.10;99.90;;;;;;5012390;28;20507;-52
2022/01/25 07:58:04;;;;;;;93.60;42.97;;;3.10;99.90;;;;;;5012372;28;20208;-52
2022/01/25 08:00:30;;;;;;;92.53;41.05;;;3.10;99.90;;;;;;4993766;28;20092;-50
2022/01/25 08:02:55;;;;;;;88.57;42.08;;;3.10;99.90;;;;;;5011048;28;20045;-50
2022/01/25 08:05:24;;;;;;;92.13;42.95;;;3.10;99.90;;;;;;5012024;28;20041;-50
2022/01/25 08:07:50;;;;;;;90.20;42.97;;;3.10;99.90;;;;;;5012326;28;20030;-51
2022/01/25 08:10:16;;;;;;;89.57;42.50;;;3.10;99.90;;;;;;5011739;28;20229;-52
2022/01/25 08:12:42;;;;;;;89.55;42.80;;;3.10;99.90;;;;;;5011756;28;20099;-51
2022/01/25 08:15:09;;;;;;;90.03;42.25;;;3.10;99.90;;;;;;5011769;28;20041;-52
2022/01/25 08:17:35;;;;;;;93.47;43.60;;;3.10;99.90;;;;;;5012100;28;20393;-53
2022/01/25 08:20:01;;;;;;;91.47;43.45;;;3.10;99.90;;;;;;5016778;28;20042;-52
2022/01/25 08:22:27;;;;;;;94.68;43.78;;;3.10;99.90;;;;;;5005372;28;20212;-52
2022/01/25 08:24:53;;;;;;;84.50;40.78;;;3.10;99.90;;;;;;5028483;28;20133;-49
2022/01/25 08:27:20;;;;;;;85.32;40.53;;;3.10;99.90;;;;;;5024272;28;20033;-52
2022/01/25 08:29:53;;;;;;;91.47;42.72;;;3.10;99.90;;;;;;5024233;28;20044;-48
2022/01/25 08:32:20;;;;;;;89.05;41.50;;;3.10;99.90;;;;;;5022595;28;20029;-51
2022/01/25 08:34:46;;;;;;;87.80;40.42;;;3.10;99.90;;;;;;5023560;28;20087;-54
2022/01/25 08:37:12;;;;;;;87.97;40.13;;;3.10;99.90;;;;;;5023511;28;20044;-51
2022/01/25 08:39:38;;;;;;;82.80;40.30;;;3.20;99.90;;;;;;5024372;28;20029;-54
2022/01/25 08:42:04;;;;;;;80.95;39.95;;;3.20;99.90;;;;;;5023651;28;20033;-53
2022/01/25 08:44:30;;;;;;;86.68;40.22;;;3.20;99.90;;;;;;5023717;28;20172;-54
2022/01/25 08:46:56;;;;;;;88.80;40.80;;;3.20;99.90;;;;;;5022458;28;20037;-53
2022/01/25 08:49:22;;;;;;;88.07;40.63;;;3.20;99.90;;;;;;5023523;28;20064;-53
2022/01/25 08:51:49;;;;;;;85.07;40.42;;;3.20;99.90;;;;;;5023818;28;20037;-53
2022/01/25 08:54:17;;;;;;;84.00;39.03;;;3.20;99.90;;;;;;5022950;28;20037;-53
2022/01/25 08:56:44;;;;;;;86.03;39.92;;;3.20;99.90;;;;;;5023380;28;20056;-51
2022/01/25 08:59:11;;;;;;;90.45;40.78;;;3.20;99.90;;;;;;5023372;28;20603;-54
2022/01/25 09:01:37;;;;;;;87.32;39.58;;;3.20;99.90;;;;;;5023068;28;20797;-53
2022/01/25 09:04:03;;;;;;;88.43;40.63;;;3.20;99.90;;;;;;5022886;28;20163;-49
2022/01/25 09:06:30;;;;;;;89.15;41.30;;;3.20;99.90;;;;;;5023323;28;20033;-53
2022/01/25 09:09:03;;;;;;;85.38;39.83;;;3.20;99.90;;;;;;5022709;28;20030;-51
2022/01/25 09:11:30;;;;;;;90.30;40.03;;;3.20;99.90;;;;;;5004763;28;20052;-51
2022/01/25 09:13:56;;;;;;;88.30;40.28;;;3.20;99.90;;;;;;5022038;28;20068;-54
2022/01/25 09:16:22;;;;;;;88.75;39.50;;;3.30;99.90;;;;;;5023036;28;20041;-49
2022/01/25 09:18:48;;;;;;;88.72;40.53;;;3.20;99.90;;;;;;5023213;28;20156;-50
2022/01/25 09:21:13;;;;;;;84.28;39.53;;;3.30;99.90;;;;;;5023117;28;20404;-52
2022/01/25 09:23:39;;;;;;;89.63;39.85;;;3.30;99.90;;;;;;5020108;28;20058;-52
2022/01/25 09:26:05;;;;;;;88.53;39.08;;;3.30;99.90;;;;;;5022704;28;20045;-53
2022/01/25 09:28:31;;;;;;;87.30;40.22;;;3.30;99.90;;;;;;5022639;28;20034;-53
2022/01/25 09:30:58;;;;;;;86.22;40.63;;;3.30;99.90;;;;;;4989026;28;20042;-54
2022/01/25 09:33:25;;;;;;;88.38;38.85;;;3.30;99.90;;;;;;5023082;28;20064;-49
2022/01/25 09:35:52;;;;;;;94.65;39.33;;;3.30;99.90;;;;;;4989598;28;20405;-56
2022/01/25 09:38:18;;;;;;;83.25;39.55;;;3.30;99.90;;;;;;5022319;28;20115;-49
2022/01/25 09:40:45;;;;;;;84.82;39.83;;;3.30;99.90;;;;;;5021743;28;20049;-50
2022/01/25 09:43:11;;;;;;;89.47;39.53;;;3.30;99.90;;;;;;5022104;28;20037;-52
2022/01/25 09:45:38;;;;;;;91.38;39.85;;;3.30;99.90;;;;;;5022185;28;20038;-52
2022/01/25 09:48:06;;;;;;;86.78;39.00;;;3.30;99.90;;;;;;5022400;28;20461;-53
2022/01/25 09:50:32;;;;;;;85.65;39.03;;;3.40;99.90;;;;;;5022227;28;20037;-52
2022/01/25 09:53:02;;;;;;;82.93;38.15;;;3.40;99.90;;;;;;5021723;28;20186;-49
2022/01/25 09:55:32;;;;;;;86.65;38.85;;;3.30;99.90;;;;;;5004490;28;20124;-51
2022/01/25 09:57:58;;;;;;;88.45;39.50;;;3.40;99.90;;;;;;5022530;28;20401;-49
2022/01/25 10:00:26;;;;;;;88.78;39.17;;;3.40;99.90;;;;;;5025697;28;20045;-52
2022/01/25 10:03:02;;;;;;;88.85;38.40;;;3.40;99.90;;;;;;5025083;28;20072;-50
2022/01/25 10:05:33;;;;;;;90.18;39.47;;;3.40;99.90;;;;;;5024532;28;20045;-50
2022/01/25 10:08:05;;;;;;;88.20;39.08;;;3.40;99.90;;;;;;5007870;28;20065;-50
2022/01/25 10:10:32;;;;;;;84.82;39.15;;;3.40;99.90;;;;;;5025935;28;20038;-54
2022/01/25 10:13:10;;;;;;;81.38;37.78;;;3.50;99.90;;;;;;5025669;28;20413;-50
2022/01/25 10:15:36;;;;;;;87.28;39.03;;;3.40;99.90;;;;;;5025651;28;20424;-50
2022/01/25 10:18:04;;;;;;;90.22;38.25;;;3.40;99.90;;;;;;5025755;28;20404;-52
2022/01/25 10:20:40;;;;;;;90.50;39.33;;;3.50;99.90;;;;;;5024408;28;20362;-54
2022/01/25 10:23:17;;;;;;;82.45;36.40;;;3.50;99.90;;;;;;5025449;28;20057;-52
2022/01/25 10:25:46;;;;;;;86.60;38.17;;;3.50;99.90;;;;;;5025233;28;20501;-51
2022/01/25 10:28:14;;;;;;;93.55;39.30;;;3.50;99.90;;;;;;5025486;28;20032;-51
2022/01/25 10:30:49;;;;;;;84.85;38.55;;;3.50;99.90;;;;;;5025283;28;20038;-51
2022/01/25 10:33:24;;;;;;;89.07;37.95;;;3.50;99.90;;;;;;5023937;28;20038;-51
2022/01/25 10:35:50;;;;;;;87.00;37.92;;;3.50;99.90;;;;;;5025297;28;20038;-51
2022/01/25 10:38:25;;;;;;;85.03;37.78;;;3.50;99.90;;;;;;5024976;28;20037;-53
2022/01/25 10:41:01;;;;;;;90.55;39.05;;;3.50;99.90;;;;;;5024818;28;20057;-51
2022/01/25 10:43:28;;;;;;;82.30;36.45;;;3.50;99.90;;;;;;5026173;28;20481;-55
2022/01/25 10:46:30;;;;;;;83.35;36.17;;;3.60;99.90;;;;;;5024976;28;20571;-53
2022/01/25 10:49:03;;;;;;;83.10;37.97;;;3.60;99.90;;;;;;4983232;28;20128;-52
2022/01/25 10:51:46;;;;;;;86.13;38.67;;;3.60;99.90;;;;;;5022359;28;20568;-55
2022/01/25 10:54:21;;;;;;;88.05;38.40;;;3.60;99.90;;;;;;5023187;28;20045;-49
2022/01/25 10:56:50;;;;;;;84.25;37.80;;;3.60;99.90;;;;;;5013284;28;20133;-52
2022/01/25 10:59:22;;;;;;;86.28;37.90;;;3.60;99.90;;;;;;5006610;28;20052;-52
2022/01/25 11:01:54;;;;;;;87.50;38.40;;;3.60;99.90;;;;;;5014537;28;20029;-51
2022/01/25 11:04:24;;;;;;;90.32;40.63;;;3.60;99.90;;;;;;5023044;28;20037;-54
2022/01/25 11:06:56;;;;;;;88.78;39.33;;;3.60;99.90;;;;;;5020379;28;20400;-53
2022/01/25 11:09:24;;;;;;;86.93;38.28;;;3.60;99.90;;;;;;5022501;28;20507;-50
2022/01/25 11:11:55;;;;;;;88.60;38.78;;;3.70;99.90;;;;;;5021179;28;20051;-53
2022/01/25 11:17:05;;;;;;;84.60;38.65;;;3.70;99.90;;;;;;5023250;28;20496;-48
2022/01/25 11:19:30;;;;;;;83.35;36.65;;;3.70;99.90;;;;;;5022317;28;20080;-53
2022/01/25 11:21:59;;;;;;;85.78;37.50;;;3.70;99.90;;;;;;5022075;28;20061;-52
2022/01/25 11:24:26;;;;;;;84.90;37.95;;;3.60;99.90;;;;;;5001989;28;20049;-53
2022/01/25 11:26:53;;;;;;;79.80;36.00;;;3.80;99.90;;;;;;5003671;28;20038;-50
2022/01/25 11:29:19;;;;;;;78.53;36.65;;;3.70;99.90;;;;;;5002874;28;20034;-51
2022/01/25 11:31:50;;;;;;;86.45;37.80;;;3.70;99.90;;;;;;5003461;28;20133;-49
2022/01/25 11:34:18;;;;;;;85.25;38.38;;;3.70;99.90;;;;;;5001849;28;20476;-49
2022/01/25 11:37:05;;;;;;;80.25;37.10;;;3.70;99.90;;;;;;4986729;28;20053;-50
2022/01/25 11:39:32;;;;;;;82.70;38.15;;;3.70;99.90;;;;;;5001938;28;20044;-50
2022/01/25 11:42:17;;;;;;;84.55;37.97;;;3.70;99.90;;;;;;5003589;28;20398;-52
2022/01/25 11:44:47;;;;;;;82.68;38.00;;;3.70;99.90;;;;;;5001705;28;20056;-49
2022/01/25 11:47:16;;;;;;;82.78;37.97;;;3.80;99.90;;;;;;5001963;28;20044;-54
2022/01/25 11:49:53;;;;;;;83.43;36.65;;;3.80;99.90;;;;;;5002841;28;20092;-48
2022/01/25 11:52:21;;;;;;;91.45;38.75;;;3.80;99.90;;;;;;5004509;28;20096;-48
2022/01/25 11:54:51;;;;;;;80.03;36.10;;;3.80;99.90;;;;;;4986181;28;20069;-51
2022/01/25 11:57:22;;;;;;;82.35;37.83;;;3.80;99.90;;;;;;5005001;28;20400;-50
2022/01/25 11:59:57;;;;;;;85.95;36.90;;;3.80;99.90;;;;;;5002594;28;20040;-53
2022/01/25 12:02:42;;;;;;;77.97;35.10;;;3.80;99.90;;;;;;5004479;28;20485;-51
2022/01/25 12:05:11;;;;;;;84.82;37.28;;;3.80;99.90;;;;;;5002386;28;20392;-52
2022/01/25 12:07:42;;;;;;;81.82;35.92;;;3.80;99.90;;;;;;5003243;28;20388;-50
2022/01/25 12:10:34;;;;;;;86.82;37.42;;;3.80;99.90;;;;;;5004114;28;20049;-52
2022/01/25 12:13:29;;;;;;;78.00;34.60;;;3.80;99.90;;;;;;4986907;28;20303;-51
2022/01/25 12:16:26;;;;;;;78.95;34.85;;;3.80;99.90;;;;;;5004279;28;20045;-51
2022/01/25 12:19:00;;;;;;;75.55;34.50;;;3.90;99.90;;;;;;5003596;28;20044;-50
2022/01/25 12:21:44;;;;;;;;;;;3.80;99.90;;;;;;5004653;28;20037;-51
2022/01/25 12:24:22;;;;;;;76.57;34.55;;;3.80;99.90;;;;;;5019355;28;20356;-53
2022/01/25 12:27:21;;;;;;;79.20;34.33;;;3.80;99.90;;;;;;5026907;28;20041;-52
2022/01/25 12:30:04;;;;;;;76.55;33.90;;;3.80;99.90;;;;;;5010613;28;20471;-50
2022/01/25 12:32:36;;;;;;;79.95;35.35;;;3.80;99.90;;;;;;5027049;28;20484;-51
2022/01/25 12:35:08;;;;;;;80.50;35.50;;;3.80;99.90;;;;;;5030234;28;20144;-50
2022/01/25 12:37:43;;;;;;;75.45;33.47;;;3.80;99.90;;;;;;5030143;28;20068;-54
2022/01/25 12:40:26;;;;;;;78.03;34.95;;;3.80;99.90;;;;;;5030323;28;20044;-52
2022/01/25 12:42:58;;;;;;;74.82;33.80;;;3.80;99.90;;;;;;5029204;28;20140;-54
2022/01/25 12:45:29;;;;;;;78.53;35.47;;;3.80;99.90;;;;;;5023272;28;20061;-50
2022/01/25 12:47:57;;;;;;;76.28;32.95;;;3.80;99.90;;;;;;5027271;28;20048;-52
2022/01/25 12:50:24;;;;;;;72.35;31.88;;;3.80;99.90;;;;;;5024111;28;20116;-53
2022/01/25 12:52:50;;;;;;;70.38;31.50;;;3.80;99.90;;;;;;5025485;28;20392;-51
2022/01/25 12:55:21;;;;;;;65.68;31.00;;;3.80;99.90;;;;;;5025527;28;20034;-52
2022/01/25 12:57:48;;;;;;;70.47;31.75;;;3.80;99.90;;;;;;5028975;28;20119;-51
2022/01/25 13:00:15;;;;;;;76.00;32.35;;;3.80;99.90;;;;;;5028179;28;20055;-50
2022/01/25 13:02:41;;;;;;;70.10;31.52;;;3.80;99.90;;;;;;5011508;28;20041;-53
2022/01/25 13:05:21;;;;;;;72.75;31.95;;;3.80;99.90;;;;;;5030248;28;20073;-53
2022/01/25 13:07:48;;;;;;;73.50;30.98;;;3.90;99.90;;;;;;5030638;28;20109;-48
2022/01/25 13:10:26;;;;;;;74.45;32.00;;;3.80;99.90;;;;;;5031193;28;20026;-52
2022/01/25 13:13:10;;;;;;;72.03;31.42;;;3.80;99.90;;;;;;5030275;28;20095;-50
2022/01/25 13:18:14;;;;;;;76.18;33.45;;;3.80;99.90;;;;;;5030753;28;20551;-52
2022/01/25 13:20:43;;;;;;;79.05;34.50;;;3.80;99.90;;;;;;5030395;28;20037;-52
2022/01/25 13:23:09;;;;;;;76.35;33.20;;;3.80;99.90;;;;;;5030608;28;20084;-49
2022/01/25 13:25:58;;;;;;;75.30;32.42;;;3.80;99.90;;;;;;5030607;28;20049;-50
2022/01/25 13:31:05;;;;;;;76.95;33.03;;;3.80;99.90;;;;;;5030353;28;20072;-51
2022/01/25 13:33:31;;;;;;;76.55;31.52;;;3.80;99.90;;;;;;5033696;28;20052;-50
2022/01/25 13:35:57;;;;;;;74.82;32.50;;;3.80;99.90;;;;;;5016559;28;20041;-54
2022/01/25 13:38:24;;;;;;;78.03;33.25;;;3.80;99.90;;;;;;5034062;28;20042;-52
2022/01/25 13:46:11;;;;;;;71.90;31.67;;;3.90;99.90;;;;;;5034743;28;20195;-49
2022/01/25 13:48:38;;;;;;;77.65;32.50;;;3.80;99.90;;;;;;5034764;28;20419;-50
2022/01/25 13:51:12;;;;;;;75.80;32.90;;;3.80;99.90;;;;;;5034186;28;20033;-51
2022/01/25 13:53:40;;;;;;;76.90;31.88;;;3.80;99.90;;;;;;5034564;28;20037;-52
2022/01/25 13:56:08;;;;;;;72.05;32.08;;;3.80;99.90;;;;;;5034380;28;20049;-51
2022/01/25 13:58:37;;;;;;;74.78;32.78;;;3.80;99.90;;;;;;5033794;28;20041;-53
2022/01/25 14:01:06;;;;;;;75.38;32.22;;;3.80;99.90;;;;;;5034049;28;20064;-54
2022/01/25 14:03:34;;;;;;;75.60;32.40;;;3.80;99.90;;;;;;5033887;28;20040;-52
2022/01/25 14:06:00;;;;;;;78.63;32.45;;;3.80;99.90;;;;;;5034114;28;20121;-50
2022/01/25 14:08:40;;;;;;;75.78;32.85;;;3.80;99.90;;;;;;5033961;28;20040;-55
2022/01/25 14:11:18;;;;;;;70.78;31.40;;;3.80;99.90;;;;;;5033919;28;20051;-51
2022/01/25 14:24:41;;;;;;;73.05;31.25;;;3.80;99.90;;;;;;5004167;28;20061;-50
2022/01/25 14:27:31;;;;;;;71.43;31.38;;;3.80;99.90;;;;;;5013923;28;20121;-50
2022/01/25 14:29:57;;;;;;;72.35;31.00;;;3.80;99.90;;;;;;5013978;28;20080;-48
2022/01/25 14:32:34;;;;;;;71.95;31.75;;;3.80;99.90;;;;;;5013221;28;20053;-52
2022/01/25 14:35:11;;;;;;;70.38;30.95;;;3.80;99.90;;;;;;5013659;28;20042;-50
2022/01/25 14:37:49;;;;;;;75.03;32.13;;;3.80;99.90;;;;;;5014040;28;20030;-55
2022/01/25 14:40:17;;;;;;;78.35;32.72;;;3.80;99.90;;;;;;5013620;28;20040;-50
2022/01/25 14:42:45;;;;;;;80.00;33.65;;;3.70;99.90;;;;;;5013787;28;20048;-51
2022/01/25 14:45:20;;;;;;;77.38;32.67;;;3.70;99.90;;;;;;5012485;28;20137;-48
2022/01/25 14:47:51;;;;;;;79.82;32.45;;;3.70;99.90;;;;;;5013780;28;20041;-48
2022/01/25 14:50:32;;;;;;;69.22;30.73;;;3.70;99.90;;;;;;5013173;28;20073;-49
2022/01/25 14:53:12;;;;;;;75.80;33.05;;;3.70;99.90;;;;;;5013845;28;20444;-50
2022/01/25 14:55:42;;;;;;;81.05;33.42;;;3.70;99.90;;;;;;5012932;28;20034;-50
2022/01/25 15:00:46;;;;;;;87.78;36.35;;;3.70;99.90;;;;;;5012506;28;20046;-50